MSC Maya — 3FNF8 — position and weather

sailwx.info

Track history (hours):
 
Tides and Currents Weather Stations Pressure Air Temp Water Temp Dewpoint Dewpoint Depression Visibility Wind Speed Wind Dir Waves Ship Positions

MSC Maya

Last reported at 2015-Apr-20 09:34 UTC. Time now 2015-Apr-21 08:15 UTC.
Position S 33°55' E 018°26'.

Length 242 m; draft 7.2 m.

Type: Cargo ship. MMSI: 351384000.

Date/timePositionNaut miles runAvg speedWind from/ knotsBaromVisibWave heightAir tempDewpointWater temp
2015-Apr-20 09:34S 33°55' E 018°26'4 3.5
2015-Apr-20 08:33S 33°51' E 018°26'2 0.1
2015-Apr-18 19:06S 33°49' E 018°25'15811.5
2015-Apr-18 05:22S 34°45' E 021°24'1111.0
2015-Apr-18 04:24S 34°43' E 021°37'331 9.7
2015-Apr-16 18:16S 33°05' E 027°58'8 9.4
2015-Apr-16 17:26S 33°00' E 028°05'8710.8
2015-Apr-16 09:21S 31°58' E 029°18'13010.7
2015-Apr-15 21:13S 30°17' E 030°53'710.6
2015-Apr-15 20:34S 30°11' E 030°57'1010.4
2015-Apr-15 19:33S 30°03' E 031°03'10 9.6
2015-Apr-15 18:33S 29°54' E 031°09'5 5.2
2015-Apr-15 17:33S 29°53' E 031°03'2 1.1
2015-Apr-15 16:12S 29°53' E 031°01'0 0.0
2015-Apr-15 15:29S 29°53' E 031°01'0 0.0
2015-Apr-15 14:30S 29°53' E 031°01'0 0.0
2015-Apr-15 12:09S 29°53' E 031°01'0 0.0
2015-Apr-15 11:18S 29°53' E 031°01'0 0.0
2015-Apr-15 10:27S 29°53' E 031°01'0 0.0
2015-Apr-15 09:27S 29°53' E 031°01'0 0.0
2015-Apr-15 08:31S 29°53' E 031°01'0 0.0
2015-Apr-15 07:31S 29°53' E 031°01'0 0.0
2015-Apr-15 06:31S 29°53' E 031°01'0 0.0
2015-Apr-15 05:26S 29°53' E 031°01'0 0.0
2015-Apr-15 04:31S 29°53' E 031°01'0 0.0
2015-Apr-15 03:28S 29°53' E 031°01'0 0.0
2015-Apr-15 02:28S 29°53' E 031°01'0 0.0
2015-Apr-15 01:29S 29°53' E 031°01'0 0.0
2015-Apr-15 00:22S 29°53' E 031°01'0 0.0
2015-Apr-14 23:33S 29°53' E 031°01'0 0.0
2015-Apr-14 22:25S 29°53' E 031°01'0 0.0
2015-Apr-14 21:31S 29°53' E 031°01'0 0.0
2015-Apr-14 20:15S 29°53' E 031°01'0 0.0
2015-Apr-14 19:33S 29°53' E 031°01'0 0.0
2015-Apr-14 18:30S 29°53' E 031°01'0 0.0
2015-Apr-14 17:33S 29°53' E 031°01'0 0.0
2015-Apr-14 16:32S 29°53' E 031°01'0 0.0
2015-Apr-14 15:33S 29°53' E 031°01'0 0.0
2015-Apr-14 14:17S 29°53' E 031°01'0 0.0
2015-Apr-14 13:33S 29°53' E 031°01'0 0.0
2015-Apr-14 11:32S 29°53' E 031°01'0 0.0
2015-Apr-14 10:23S 29°53' E 031°01'0 0.0
2015-Apr-14 09:31S 29°53' E 031°01'0 0.0
2015-Apr-14 08:33S 29°53' E 031°01'0 0.0
2015-Apr-13 21:33S 29°53' E 031°01'0 0.0
2015-Apr-13 20:32S 29°53' E 031°01'0 0.0
2015-Apr-13 19:33S 29°53' E 031°01'0 0.0
2015-Apr-13 18:32S 29°53' E 031°01'0 0.0
2015-Apr-13 17:33S 29°53' E 031°01'0 0.0
2015-Apr-13 16:06S 29°53' E 031°01'0 0.0
2015-Apr-13 15:32S 29°53' E 031°01'0 0.0
2015-Apr-13 14:32S 29°53' E 031°01'0 0.0
2015-Apr-13 13:33S 29°53' E 031°01'27613.6
2015-Apr-12 17:13S 33°24' E 027°33'  
Track history (hours):
 
Tides and Currents Weather Stations Pressure Air Temp Water Temp Dewpoint Dewpoint Depression Visibility Wind Speed Wind Dir Waves Ship Positions

MSC Maya

Last reported at 2015-Apr-20 09:34 UTC. Time now 2015-Apr-21 08:15 UTC.
Position S 33°55' E 018°26'.

Length 242 m; draft 7.2 m.

Type: Cargo ship. MMSI: 351384000.

Date/timePositionNaut miles runAvg speedWind from/ knotsBaromVisibWave heightAir tempDewpointWater temp
2015-Apr-20 09:34S 33°55' E 018°26'4 3.5
2015-Apr-20 08:33S 33°51' E 018°26'2 0.1
2015-Apr-18 19:06S 33°49' E 018°25'15811.5
2015-Apr-18 05:22S 34°45' E 021°24'1111.0
2015-Apr-18 04:24S 34°43' E 021°37'331 9.7
2015-Apr-16 18:16S 33°05' E 027°58'8 9.4
2015-Apr-16 17:26S 33°00' E 028°05'8710.8
2015-Apr-16 09:21S 31°58' E 029°18'13010.7
2015-Apr-15 21:13S 30°17' E 030°53'710.6
2015-Apr-15 20:34S 30°11' E 030°57'1010.4
2015-Apr-15 19:33S 30°03' E 031°03'10 9.6
2015-Apr-15 18:33S 29°54' E 031°09'5 5.2
2015-Apr-15 17:33S 29°53' E 031°03'2 1.1
2015-Apr-15 16:12S 29°53' E 031°01'0 0.0
2015-Apr-15 15:29S 29°53' E 031°01'0 0.0
2015-Apr-15 14:30S 29°53' E 031°01'0 0.0
2015-Apr-15 12:09S 29°53' E 031°01'0 0.0
2015-Apr-15 11:18S 29°53' E 031°01'0 0.0
2015-Apr-15 10:27S 29°53' E 031°01'0 0.0
2015-Apr-15 09:27S 29°53' E 031°01'0 0.0
2015-Apr-15 08:31S 29°53' E 031°01'0 0.0
2015-Apr-15 07:31S 29°53' E 031°01'0 0.0
2015-Apr-15 06:31S 29°53' E 031°01'0 0.0
2015-Apr-15 05:26S 29°53' E 031°01'0 0.0
2015-Apr-15 04:31S 29°53' E 031°01'0 0.0
2015-Apr-15 03:28S 29°53' E 031°01'0 0.0
2015-Apr-15 02:28S 29°53' E 031°01'0 0.0
2015-Apr-15 01:29S 29°53' E 031°01'0 0.0
2015-Apr-15 00:22S 29°53' E 031°01'0 0.0
2015-Apr-14 23:33S 29°53' E 031°01'0 0.0
2015-Apr-14 22:25S 29°53' E 031°01'0 0.0
2015-Apr-14 21:31S 29°53' E 031°01'0 0.0
2015-Apr-14 20:15S 29°53' E 031°01'0 0.0
2015-Apr-14 19:33S 29°53' E 031°01'0 0.0
2015-Apr-14 18:30S 29°53' E 031°01'0 0.0
2015-Apr-14 17:33S 29°53' E 031°01'0 0.0
2015-Apr-14 16:32S 29°53' E 031°01'0 0.0
2015-Apr-14 15:33S 29°53' E 031°01'0 0.0
2015-Apr-14 14:17S 29°53' E 031°01'0 0.0
2015-Apr-14 13:33S 29°53' E 031°01'0 0.0
2015-Apr-14 11:32S 29°53' E 031°01'0 0.0
2015-Apr-14 10:23S 29°53' E 031°01'0 0.0
2015-Apr-14 09:31S 29°53' E 031°01'0 0.0
2015-Apr-14 08:33S 29°53' E 031°01'0 0.0
2015-Apr-13 21:33S 29°53' E 031°01'0 0.0
2015-Apr-13 20:32S 29°53' E 031°01'0 0.0
2015-Apr-13 19:33S 29°53' E 031°01'0 0.0
2015-Apr-13 18:32S 29°53' E 031°01'0 0.0
2015-Apr-13 17:33S 29°53' E 031°01'0 0.0
2015-Apr-13 16:06S 29°53' E 031°01'0 0.0
2015-Apr-13 15:32S 29°53' E 031°01'0 0.0
2015-Apr-13 14:32S 29°53' E 031°01'0 0.0
2015-Apr-13 13:33S 29°53' E 031°01'27613.6
2015-Apr-12 17:13S 33°24' E 027°33'  

Dump ship's entire track history